sensor_id;sensor_type;location;lat;lon;timestamp;P1;durP1;ratioP1;P2;durP2;ratioP2
59516;SDS011;45342;42.662;27.718;2023-11-21T00:00:35;7.43;;;4.45;;
59516;SDS011;45342;42.662;27.718;2023-11-21T00:06:22;6.38;;;4.25;;
59516;SDS011;45342;42.662;27.718;2023-11-21T00:08:48;7.93;;;4.18;;
59516;SDS011;45342;42.662;27.718;2023-11-21T00:14:17;7.15;;;4.40;;
59516;SDS011;45342;42.662;27.718;2023-11-21T00:17:36;7.90;;;4.50;;
59516;SDS011;45342;42.662;27.718;2023-11-21T00:20:03;6.35;;;4.32;;
59516;SDS011;45342;42.662;27.718;2023-11-21T00:22:32;6.13;;;4.05;;
59516;SDS011;45342;42.662;27.718;2023-11-21T00:25:01;6.80;;;4.35;;
59516;SDS011;45342;42.662;27.718;2023-11-21T00:27:29;7.60;;;4.25;;
59516;SDS011;45342;42.662;27.718;2023-11-21T00:29:55;6.63;;;4.03;;
59516;SDS011;45342;42.662;27.718;2023-11-21T00:32:20;6.72;;;4.28;;
59516;SDS011;45342;42.662;27.718;2023-11-21T00:34:46;6.97;;;4.00;;
59516;SDS011;45342;42.662;27.718;2023-11-21T00:37:12;6.97;;;4.65;;
59516;SDS011;45342;42.662;27.718;2023-11-21T00:39:37;7.22;;;4.50;;
59516;SDS011;45342;42.662;27.718;2023-11-21T00:42:03;5.65;;;4.20;;
59516;SDS011;45342;42.662;27.718;2023-11-21T00:44:30;6.45;;;4.30;;
59516;SDS011;45342;42.662;27.718;2023-11-21T00:46:55;6.93;;;4.72;;
59516;SDS011;45342;42.662;27.718;2023-11-21T00:49:21;6.43;;;4.10;;
59516;SDS011;45342;42.662;27.718;2023-11-21T00:51:47;6.22;;;3.95;;
59516;SDS011;45342;42.662;27.718;2023-11-21T00:54:12;6.78;;;4.38;;
59516;SDS011;45342;42.662;27.718;2023-11-21T00:56:38;6.45;;;4.43;;
59516;SDS011;45342;42.662;27.718;2023-11-21T00:59:05;7.15;;;4.72;;
59516;SDS011;45342;42.662;27.718;2023-11-21T01:01:30;6.63;;;4.22;;
59516;SDS011;45342;42.662;27.718;2023-11-21T01:03:56;5.80;;;4.28;;
59516;SDS011;45342;42.662;27.718;2023-11-21T01:06:22;6.22;;;4.40;;
59516;SDS011;45342;42.662;27.718;2023-11-21T01:08:47;5.78;;;3.92;;
59516;SDS011;45342;42.662;27.718;2023-11-21T01:11:13;6.40;;;4.43;;
59516;SDS011;45342;42.662;27.718;2023-11-21T01:13:39;6.05;;;4.25;;
59516;SDS011;45342;42.662;27.718;2023-11-21T01:16:05;5.63;;;4.22;;
59516;SDS011;45342;42.662;27.718;2023-11-21T01:18:31;6.20;;;4.40;;
59516;SDS011;45342;42.662;27.718;2023-11-21T01:20:57;6.53;;;4.18;;
59516;SDS011;45342;42.662;27.718;2023-11-21T01:23:27;6.57;;;4.30;;
59516;SDS011;45342;42.662;27.718;2023-11-21T01:25:54;7.47;;;4.43;;
59516;SDS011;45342;42.662;27.718;2023-11-21T01:28:20;7.72;;;5.00;;
59516;SDS011;45342;42.662;27.718;2023-11-21T01:30:46;5.65;;;3.90;;
59516;SDS011;45342;42.662;27.718;2023-11-21T01:33:12;5.97;;;4.10;;
59516;SDS011;45342;42.662;27.718;2023-11-21T01:35:41;6.28;;;4.30;;
59516;SDS011;45342;42.662;27.718;2023-11-21T01:38:07;6.28;;;4.05;;
59516;SDS011;45342;42.662;27.718;2023-11-21T01:40:33;6.32;;;3.80;;
59516;SDS011;45342;42.662;27.718;2023-11-21T01:42:59;5.75;;;4.03;;
59516;SDS011;45342;42.662;27.718;2023-11-21T01:45:28;7.03;;;4.50;;
59516;SDS011;45342;42.662;27.718;2023-11-21T01:47:56;5.18;;;4.20;;
59516;SDS011;45342;42.662;27.718;2023-11-21T01:50:22;6.20;;;4.40;;
59516;SDS011;45342;42.662;27.718;2023-11-21T01:52:48;6.38;;;4.07;;
59516;SDS011;45342;42.662;27.718;2023-11-21T01:55:14;7.35;;;4.50;;
59516;SDS011;45342;42.662;27.718;2023-11-21T01:57:43;6.00;;;3.85;;
59516;SDS011;45342;42.662;27.718;2023-11-21T02:00:12;6.55;;;3.90;;
59516;SDS011;45342;42.662;27.718;2023-11-21T02:02:47;6.50;;;4.43;;
59516;SDS011;45342;42.662;27.718;2023-11-21T02:05:17;6.43;;;4.22;;
59516;SDS011;45342;42.662;27.718;2023-11-21T02:07:44;5.40;;;3.88;;
59516;SDS011;45342;42.662;27.718;2023-11-21T02:12:39;5.57;;;3.95;;
59516;SDS011;45342;42.662;27.718;2023-11-21T02:15:06;6.70;;;4.28;;
59516;SDS011;45342;42.662;27.718;2023-11-21T02:17:41;6.35;;;4.60;;
59516;SDS011;45342;42.662;27.718;2023-11-21T02:20:10;6.78;;;4.30;;
59516;SDS011;45342;42.662;27.718;2023-11-21T02:22:40;6.32;;;4.00;;
59516;SDS011;45342;42.662;27.718;2023-11-21T02:25:10;6.40;;;4.18;;
59516;SDS011;45342;42.662;27.718;2023-11-21T02:27:36;7.05;;;4.20;;
59516;SDS011;45342;42.662;27.718;2023-11-21T02:30:02;6.47;;;4.30;;
59516;SDS011;45342;42.662;27.718;2023-11-21T02:32:29;5.85;;;4.30;;
59516;SDS011;45342;42.662;27.718;2023-11-21T02:34:56;6.63;;;4.30;;
59516;SDS011;45342;42.662;27.718;2023-11-21T02:37:26;5.68;;;4.30;;
59516;SDS011;45342;42.662;27.718;2023-11-21T02:39:52;7.03;;;4.10;;
59516;SDS011;45342;42.662;27.718;2023-11-21T02:42:18;6.13;;;4.10;;
59516;SDS011;45342;42.662;27.718;2023-11-21T02:44:43;5.18;;;3.80;;
59516;SDS011;45342;42.662;27.718;2023-11-21T02:47:09;7.32;;;4.60;;
59516;SDS011;45342;42.662;27.718;2023-11-21T02:49:35;5.22;;;3.88;;
59516;SDS011;45342;42.662;27.718;2023-11-21T02:52:01;5.43;;;3.85;;
59516;SDS011;45342;42.662;27.718;2023-11-21T02:54:30;6.47;;;3.88;;
59516;SDS011;45342;42.662;27.718;2023-11-21T02:56:56;5.53;;;3.53;;
59516;SDS011;45342;42.662;27.718;2023-11-21T02:59:22;6.13;;;4.07;;
59516;SDS011;45342;42.662;27.718;2023-11-21T03:01:47;5.05;;;3.67;;
59516;SDS011;45342;42.662;27.718;2023-11-21T03:04:14;5.60;;;3.88;;
59516;SDS011;45342;42.662;27.718;2023-11-21T03:06:43;5.25;;;3.70;;
59516;SDS011;45342;42.662;27.718;2023-11-21T03:09:09;5.22;;;3.90;;
59516;SDS011;45342;42.662;27.718;2023-11-21T03:11:37;5.55;;;3.88;;
59516;SDS011;45342;42.662;27.718;2023-11-21T03:14:03;5.50;;;3.45;;
59516;SDS011;45342;42.662;27.718;2023-11-21T03:16:28;5.13;;;3.60;;
59516;SDS011;45342;42.662;27.718;2023-11-21T03:18:54;7.22;;;3.60;;
59516;SDS011;45342;42.662;27.718;2023-11-21T03:21:20;5.72;;;3.80;;
59516;SDS011;45342;42.662;27.718;2023-11-21T03:23:45;4.10;;;3.58;;
59516;SDS011;45342;42.662;27.718;2023-11-21T03:26:11;4.55;;;3.60;;
59516;SDS011;45342;42.662;27.718;2023-11-21T03:28:38;5.40;;;3.35;;
59516;SDS011;45342;42.662;27.718;2023-11-21T03:31:03;5.05;;;3.50;;
59516;SDS011;45342;42.662;27.718;2023-11-21T03:33:29;4.47;;;3.30;;
59516;SDS011;45342;42.662;27.718;2023-11-21T03:35:55;5.28;;;3.80;;
59516;SDS011;45342;42.662;27.718;2023-11-21T03:38:20;5.20;;;3.75;;
59516;SDS011;45342;42.662;27.718;2023-11-21T03:40:46;4.85;;;3.50;;
59516;SDS011;45342;42.662;27.718;2023-11-21T03:43:15;5.00;;;3.30;;
59516;SDS011;45342;42.662;27.718;2023-11-21T03:45:51;4.63;;;3.47;;
59516;SDS011;45342;42.662;27.718;2023-11-21T03:48:16;6.68;;;3.65;;
59516;SDS011;45342;42.662;27.718;2023-11-21T03:50:42;5.88;;;3.33;;
59516;SDS011;45342;42.662;27.718;2023-11-21T03:53:07;5.35;;;3.85;;
59516;SDS011;45342;42.662;27.718;2023-11-21T03:55:33;4.75;;;3.40;;
59516;SDS011;45342;42.662;27.718;2023-11-21T03:57:59;4.78;;;3.63;;
59516;SDS011;45342;42.662;27.718;2023-11-21T04:00:25;4.85;;;3.33;;
59516;SDS011;45342;42.662;27.718;2023-11-21T04:02:52;6.22;;;3.70;;
59516;SDS011;45342;42.662;27.718;2023-11-21T04:05:19;6.05;;;3.92;;
59516;SDS011;45342;42.662;27.718;2023-11-21T04:07:46;5.15;;;3.42;;
59516;SDS011;45342;42.662;27.718;2023-11-21T04:10:12;4.70;;;3.33;;
59516;SDS011;45342;42.662;27.718;2023-11-21T04:12:38;6.30;;;3.70;;
59516;SDS011;45342;42.662;27.718;2023-11-21T04:15:04;5.20;;;3.55;;
59516;SDS011;45342;42.662;27.718;2023-11-21T04:17:30;4.93;;;3.58;;
59516;SDS011;45342;42.662;27.718;2023-11-21T04:19:56;5.88;;;3.70;;
59516;SDS011;45342;42.662;27.718;2023-11-21T04:22:24;4.82;;;3.60;;
59516;SDS011;45342;42.662;27.718;2023-11-21T04:27:50;5.13;;;3.88;;
59516;SDS011;45342;42.662;27.718;2023-11-21T04:30:16;5.75;;;3.70;;
59516;SDS011;45342;42.662;27.718;2023-11-21T04:36:00;5.60;;;3.72;;
59516;SDS011;45342;42.662;27.718;2023-11-21T04:50:23;5.38;;;3.30;;
59516;SDS011;45342;42.662;27.718;2023-11-21T04:52:48;5.75;;;3.50;;
59516;SDS011;45342;42.662;27.718;2023-11-21T04:55:14;5.47;;;3.67;;
59516;SDS011;45342;42.662;27.718;2023-11-21T04:57:40;5.38;;;3.75;;
59516;SDS011;45342;42.662;27.718;2023-11-21T05:00:07;5.68;;;3.55;;
59516;SDS011;45342;42.662;27.718;2023-11-21T05:02:34;5.28;;;3.35;;
59516;SDS011;45342;42.662;27.718;2023-11-21T05:05:00;5.28;;;3.45;;
59516;SDS011;45342;42.662;27.718;2023-11-21T05:07:27;5.57;;;3.45;;
59516;SDS011;45342;42.662;27.718;2023-11-21T05:09:55;4.65;;;3.20;;
59516;SDS011;45342;42.662;27.718;2023-11-21T05:12:23;5.07;;;3.20;;
59516;SDS011;45342;42.662;27.718;2023-11-21T05:14:49;5.65;;;3.45;;
59516;SDS011;45342;42.662;27.718;2023-11-21T05:19:41;4.43;;;3.30;;
59516;SDS011;45342;42.662;27.718;2023-11-21T05:22:06;4.90;;;3.42;;
59516;SDS011;45342;42.662;27.718;2023-11-21T05:24:33;4.63;;;3.28;;
59516;SDS011;45342;42.662;27.718;2023-11-21T05:27:00;4.40;;;3.20;;
59516;SDS011;45342;42.662;27.718;2023-11-21T05:29:25;5.78;;;3.40;;
59516;SDS011;45342;42.662;27.718;2023-11-21T05:31:51;5.85;;;3.70;;
59516;SDS011;45342;42.662;27.718;2023-11-21T05:34:18;5.55;;;3.67;;
59516;SDS011;45342;42.662;27.718;2023-11-21T05:36:45;5.28;;;3.50;;
59516;SDS011;45342;42.662;27.718;2023-11-21T05:39:11;5.22;;;3.40;;
59516;SDS011;45342;42.662;27.718;2023-11-21T05:41:37;5.50;;;3.50;;
59516;SDS011;45342;42.662;27.718;2023-11-21T05:44:03;4.95;;;3.50;;
59516;SDS011;45342;42.662;27.718;2023-11-21T05:46:29;6.10;;;3.50;;
59516;SDS011;45342;42.662;27.718;2023-11-21T05:48:54;5.38;;;3.60;;
59516;SDS011;45342;42.662;27.718;2023-11-21T05:51:20;6.18;;;3.60;;
59516;SDS011;45342;42.662;27.718;2023-11-21T05:53:46;5.22;;;3.42;;
59516;SDS011;45342;42.662;27.718;2023-11-21T05:56:14;5.63;;;3.60;;
59516;SDS011;45342;42.662;27.718;2023-11-21T05:58:40;7.00;;;3.60;;
59516;SDS011;45342;42.662;27.718;2023-11-21T06:01:22;5.80;;;3.58;;
59516;SDS011;45342;42.662;27.718;2023-11-21T06:04:09;5.45;;;3.40;;
59516;SDS011;45342;42.662;27.718;2023-11-21T06:06:36;6.18;;;3.70;;
59516;SDS011;45342;42.662;27.718;2023-11-21T06:09:01;6.10;;;3.70;;
59516;SDS011;45342;42.662;27.718;2023-11-21T06:11:35;8.02;;;4.47;;
59516;SDS011;45342;42.662;27.718;2023-11-21T06:14:19;9.30;;;4.80;;
59516;SDS011;45342;42.662;27.718;2023-11-21T06:16:59;7.22;;;4.22;;
59516;SDS011;45342;42.662;27.718;2023-11-21T06:19:24;6.70;;;4.15;;
59516;SDS011;45342;42.662;27.718;2023-11-21T06:21:50;7.22;;;4.00;;
59516;SDS011;45342;42.662;27.718;2023-11-21T06:24:16;6.45;;;4.03;;
59516;SDS011;45342;42.662;27.718;2023-11-21T06:26:42;5.70;;;3.70;;
59516;SDS011;45342;42.662;27.718;2023-11-21T06:29:09;5.50;;;3.90;;
59516;SDS011;45342;42.662;27.718;2023-11-21T06:31:36;7.22;;;4.00;;
59516;SDS011;45342;42.662;27.718;2023-11-21T06:34:02;7.38;;;4.30;;
59516;SDS011;45342;42.662;27.718;2023-11-21T06:36:28;7.28;;;4.05;;
59516;SDS011;45342;42.662;27.718;2023-11-21T06:38:54;6.78;;;3.95;;
59516;SDS011;45342;42.662;27.718;2023-11-21T06:41:20;5.85;;;3.88;;
59516;SDS011;45342;42.662;27.718;2023-11-21T06:43:46;7.22;;;4.15;;
59516;SDS011;45342;42.662;27.718;2023-11-21T06:46:12;7.65;;;4.07;;
59516;SDS011;45342;42.662;27.718;2023-11-21T06:48:42;5.15;;;3.63;;
59516;SDS011;45342;42.662;27.718;2023-11-21T06:51:07;5.78;;;3.83;;
59516;SDS011;45342;42.662;27.718;2023-11-21T06:53:33;5.78;;;3.80;;
59516;SDS011;45342;42.662;27.718;2023-11-21T06:55:59;5.95;;;3.95;;
59516;SDS011;45342;42.662;27.718;2023-11-21T06:58:24;5.22;;;3.53;;
59516;SDS011;45342;42.662;27.718;2023-11-21T07:00:50;8.38;;;3.88;;
59516;SDS011;45342;42.662;27.718;2023-11-21T07:03:17;6.75;;;3.95;;
59516;SDS011;45342;42.662;27.718;2023-11-21T07:05:44;6.55;;;3.80;;
59516;SDS011;45342;42.662;27.718;2023-11-21T07:10:36;5.22;;;3.70;;
59516;SDS011;45342;42.662;27.718;2023-11-21T07:13:02;5.55;;;3.70;;
59516;SDS011;45342;42.662;27.718;2023-11-21T07:15:27;5.97;;;4.00;;
59516;SDS011;45342;42.662;27.718;2023-11-21T07:17:53;6.55;;;3.70;;
59516;SDS011;45342;42.662;27.718;2023-11-21T07:20:19;7.38;;;3.70;;
59516;SDS011;45342;42.662;27.718;2023-11-21T07:22:45;5.95;;;3.80;;
59516;SDS011;45342;42.662;27.718;2023-11-21T07:25:10;6.60;;;3.60;;
59516;SDS011;45342;42.662;27.718;2023-11-21T07:27:37;6.72;;;3.83;;
59516;SDS011;45342;42.662;27.718;2023-11-21T07:30:02;6.00;;;3.95;;
59516;SDS011;45342;42.662;27.718;2023-11-21T07:32:30;4.80;;;3.50;;
59516;SDS011;45342;42.662;27.718;2023-11-21T07:34:56;5.55;;;3.42;;
59516;SDS011;45342;42.662;27.718;2023-11-21T07:37:24;5.47;;;3.60;;
59516;SDS011;45342;42.662;27.718;2023-11-21T07:39:54;6.25;;;4.07;;
59516;SDS011;45342;42.662;27.718;2023-11-21T07:42:22;7.15;;;3.72;;
59516;SDS011;45342;42.662;27.718;2023-11-21T07:44:49;4.65;;;3.22;;
59516;SDS011;45342;42.662;27.718;2023-11-21T07:47:15;5.93;;;3.92;;
59516;SDS011;45342;42.662;27.718;2023-11-21T07:49:41;5.25;;;3.65;;
59516;SDS011;45342;42.662;27.718;2023-11-21T07:52:09;5.65;;;3.60;;
59516;SDS011;45342;42.662;27.718;2023-11-21T07:57:01;5.90;;;3.65;;
59516;SDS011;45342;42.662;27.718;2023-11-21T07:59:29;5.95;;;3.88;;
59516;SDS011;45342;42.662;27.718;2023-11-21T08:01:55;5.53;;;3.50;;
59516;SDS011;45342;42.662;27.718;2023-11-21T08:04:20;6.50;;;4.05;;
59516;SDS011;45342;42.662;27.718;2023-11-21T08:06:46;7.30;;;4.03;;
59516;SDS011;45342;42.662;27.718;2023-11-21T08:09:11;6.43;;;4.07;;
59516;SDS011;45342;42.662;27.718;2023-11-21T08:11:37;5.07;;;3.70;;
59516;SDS011;45342;42.662;27.718;2023-11-21T08:14:04;5.85;;;3.90;;
59516;SDS011;45342;42.662;27.718;2023-11-21T08:16:30;8.65;;;3.83;;
59516;SDS011;45342;42.662;27.718;2023-11-21T08:18:56;7.05;;;3.92;;
59516;SDS011;45342;42.662;27.718;2023-11-21T08:21:22;4.72;;;3.17;;
59516;SDS011;45342;42.662;27.718;2023-11-21T08:23:54;5.00;;;3.60;;
59516;SDS011;45342;42.662;27.718;2023-11-21T08:26:20;5.97;;;3.75;;
59516;SDS011;45342;42.662;27.718;2023-11-21T08:28:49;5.55;;;3.55;;
59516;SDS011;45342;42.662;27.718;2023-11-21T08:31:17;4.70;;;3.33;;
59516;SDS011;45342;42.662;27.718;2023-11-21T08:33:42;5.63;;;3.75;;
59516;SDS011;45342;42.662;27.718;2023-11-21T08:36:08;6.28;;;3.90;;
59516;SDS011;45342;42.662;27.718;2023-11-21T08:38:36;5.35;;;3.40;;
59516;SDS011;45342;42.662;27.718;2023-11-21T08:41:06;5.88;;;3.70;;
59516;SDS011;45342;42.662;27.718;2023-11-21T08:45:59;4.97;;;3.45;;
59516;SDS011;45342;42.662;27.718;2023-11-21T08:48:25;5.20;;;3.53;;
59516;SDS011;45342;42.662;27.718;2023-11-21T08:53:17;5.72;;;3.50;;
59516;SDS011;45342;42.662;27.718;2023-11-21T08:55:42;5.60;;;3.72;;
59516;SDS011;45342;42.662;27.718;2023-11-21T08:58:09;4.90;;;3.58;;
59516;SDS011;45342;42.662;27.718;2023-11-21T09:00:34;4.88;;;3.53;;
59516;SDS011;45342;42.662;27.718;2023-11-21T09:03:01;6.10;;;3.88;;
59516;SDS011;45342;42.662;27.718;2023-11-21T09:05:28;5.72;;;3.90;;
59516;SDS011;45342;42.662;27.718;2023-11-21T09:07:54;5.43;;;3.38;;
59516;SDS011;45342;42.662;27.718;2023-11-21T09:10:19;6.18;;;3.53;;
59516;SDS011;45342;42.662;27.718;2023-11-21T09:12:46;5.22;;;3.45;;
59516;SDS011;45342;42.662;27.718;2023-11-21T09:15:11;5.20;;;3.58;;
59516;SDS011;45342;42.662;27.718;2023-11-21T09:17:37;5.32;;;3.28;;
59516;SDS011;45342;42.662;27.718;2023-11-21T09:20:03;4.88;;;3.20;;
59516;SDS011;45342;42.662;27.718;2023-11-21T09:22:31;5.20;;;3.40;;
59516;SDS011;45342;42.662;27.718;2023-11-21T09:27:23;5.90;;;3.92;;
59516;SDS011;45342;42.662;27.718;2023-11-21T09:29:49;5.68;;;3.63;;
59516;SDS011;45342;42.662;27.718;2023-11-21T09:32:14;5.15;;;3.45;;
59516;SDS011;45342;42.662;27.718;2023-11-21T09:34:41;5.32;;;3.50;;
59516;SDS011;45342;42.662;27.718;2023-11-21T09:37:07;5.63;;;3.78;;
59516;SDS011;45342;42.662;27.718;2023-11-21T09:39:33;6.43;;;3.55;;
59516;SDS011;45342;42.662;27.718;2023-11-21T09:42:04;5.22;;;3.70;;
59516;SDS011;45342;42.662;27.718;2023-11-21T09:44:36;6.47;;;4.07;;
59516;SDS011;45342;42.662;27.718;2023-11-21T09:47:11;5.88;;;3.28;;
59516;SDS011;45342;42.662;27.718;2023-11-21T09:49:42;5.82;;;3.80;;
59516;SDS011;45342;42.662;27.718;2023-11-21T09:52:11;4.95;;;3.42;;
59516;SDS011;45342;42.662;27.718;2023-11-21T09:54:44;6.25;;;3.55;;
59516;SDS011;45342;42.662;27.718;2023-11-21T09:57:10;6.32;;;3.35;;
59516;SDS011;45342;42.662;27.718;2023-11-21T09:59:36;5.63;;;3.58;;
59516;SDS011;45342;42.662;27.718;2023-11-21T10:02:03;5.72;;;3.60;;
59516;SDS011;45342;42.662;27.718;2023-11-21T10:04:29;5.90;;;3.45;;
59516;SDS011;45342;42.662;27.718;2023-11-21T10:06:54;5.45;;;3.53;;
59516;SDS011;45342;42.662;27.718;2023-11-21T10:09:21;5.25;;;3.83;;
59516;SDS011;45342;42.662;27.718;2023-11-21T10:11:49;6.43;;;3.80;;
59516;SDS011;45342;42.662;27.718;2023-11-21T10:14:17;5.03;;;3.70;;
59516;SDS011;45342;42.662;27.718;2023-11-21T10:16:44;5.55;;;3.75;;
59516;SDS011;45342;42.662;27.718;2023-11-21T10:19:12;6.18;;;3.88;;
59516;SDS011;45342;42.662;27.718;2023-11-21T10:21:40;5.28;;;3.33;;
59516;SDS011;45342;42.662;27.718;2023-11-21T10:24:06;5.97;;;3.42;;
59516;SDS011;45342;42.662;27.718;2023-11-21T10:26:32;4.90;;;3.50;;
59516;SDS011;45342;42.662;27.718;2023-11-21T10:29:01;5.07;;;3.33;;
59516;SDS011;45342;42.662;27.718;2023-11-21T10:31:30;4.53;;;3.10;;
59516;SDS011;45342;42.662;27.718;2023-11-21T10:34:15;6.60;;;3.63;;
59516;SDS011;45342;42.662;27.718;2023-11-21T10:36:42;3.95;;;3.17;;
59516;SDS011;45342;42.662;27.718;2023-11-21T10:39:08;4.88;;;3.47;;
59516;SDS011;45342;42.662;27.718;2023-11-21T10:41:35;9.70;;;3.67;;
59516;SDS011;45342;42.662;27.718;2023-11-21T10:44:01;11.95;;;3.85;;
59516;SDS011;45342;42.662;27.718;2023-11-21T10:46:32;6.78;;;3.38;;
59516;SDS011;45342;42.662;27.718;2023-11-21T10:48:59;5.88;;;3.38;;
59516;SDS011;45342;42.662;27.718;2023-11-21T10:51:25;8.43;;;3.90;;
59516;SDS011;45342;42.662;27.718;2023-11-21T10:53:53;5.88;;;3.15;;
59516;SDS011;45342;42.662;27.718;2023-11-21T10:56:19;5.65;;;3.08;;
59516;SDS011;45342;42.662;27.718;2023-11-21T10:58:49;6.95;;;3.50;;
59516;SDS011;45342;42.662;27.718;2023-11-21T11:01:19;4.57;;;3.22;;
59516;SDS011;45342;42.662;27.718;2023-11-21T11:03:49;5.72;;;3.38;;
59516;SDS011;45342;42.662;27.718;2023-11-21T11:06:15;7.78;;;3.28;;
59516;SDS011;45342;42.662;27.718;2023-11-21T11:08:41;7.53;;;3.70;;
59516;SDS011;45342;42.662;27.718;2023-11-21T11:11:07;4.90;;;3.22;;
59516;SDS011;45342;42.662;27.718;2023-11-21T11:13:35;6.65;;;3.55;;
59516;SDS011;45342;42.662;27.718;2023-11-21T11:16:01;5.70;;;2.90;;
59516;SDS011;45342;42.662;27.718;2023-11-21T11:18:28;4.97;;;3.17;;
59516;SDS011;45342;42.662;27.718;2023-11-21T11:20:54;6.93;;;3.60;;
59516;SDS011;45342;42.662;27.718;2023-11-21T11:29:46;6.70;;;3.30;;
59516;SDS011;45342;42.662;27.718;2023-11-21T11:33:06;5.88;;;3.70;;
59516;SDS011;45342;42.662;27.718;2023-11-21T11:35:23;5.63;;;3.40;;
59516;SDS011;45342;42.662;27.718;2023-11-21T11:37:52;5.32;;;3.33;;
59516;SDS011;45342;42.662;27.718;2023-11-21T11:40:18;5.10;;;3.38;;
59516;SDS011;45342;42.662;27.718;2023-11-21T11:43:00;5.97;;;3.60;;
59516;SDS011;45342;42.662;27.718;2023-11-21T11:45:33;5.18;;;3.42;;
59516;SDS011;45342;42.662;27.718;2023-11-21T11:48:00;5.00;;;3.40;;
59516;SDS011;45342;42.662;27.718;2023-11-21T11:50:27;5.18;;;3.33;;
59516;SDS011;45342;42.662;27.718;2023-11-21T11:52:53;4.75;;;2.92;;
59516;SDS011;45342;42.662;27.718;2023-11-21T11:55:21;6.70;;;3.53;;
59516;SDS011;45342;42.662;27.718;2023-11-21T11:57:47;4.95;;;3.42;;
59516;SDS011;45342;42.662;27.718;2023-11-21T12:02:53;4.85;;;3.08;;
59516;SDS011;45342;42.662;27.718;2023-11-21T12:05:20;5.40;;;3.47;;
59516;SDS011;45342;42.662;27.718;2023-11-21T12:07:47;4.18;;;3.08;;
59516;SDS011;45342;42.662;27.718;2023-11-21T12:10:19;5.45;;;3.58;;
59516;SDS011;45342;42.662;27.718;2023-11-21T12:12:53;5.40;;;3.22;;
59516;SDS011;45342;42.662;27.718;2023-11-21T12:15:18;4.82;;;3.22;;
59516;SDS011;45342;42.662;27.718;2023-11-21T12:17:45;4.88;;;3.30;;
59516;SDS011;45342;42.662;27.718;2023-11-21T12:20:12;4.50;;;3.30;;
59516;SDS011;45342;42.662;27.718;2023-11-21T12:22:52;4.63;;;2.83;;
59516;SDS011;45342;42.662;27.718;2023-11-21T12:25:26;5.68;;;3.10;;
59516;SDS011;45342;42.662;27.718;2023-11-21T12:27:59;4.30;;;3.05;;
59516;SDS011;45342;42.662;27.718;2023-11-21T12:30:26;6.38;;;3.70;;
59516;SDS011;45342;42.662;27.718;2023-11-21T12:32:57;4.93;;;3.40;;
59516;SDS011;45342;42.662;27.718;2023-11-21T12:35:27;5.70;;;3.38;;
59516;SDS011;45342;42.662;27.718;2023-11-21T12:37:55;4.65;;;3.15;;
59516;SDS011;45342;42.662;27.718;2023-11-21T12:40:24;4.72;;;3.20;;
59516;SDS011;45342;42.662;27.718;2023-11-21T12:42:54;5.57;;;3.33;;
59516;SDS011;45342;42.662;27.718;2023-11-21T12:45:23;6.38;;;3.42;;
59516;SDS011;45342;42.662;27.718;2023-11-21T12:47:51;4.72;;;3.33;;
59516;SDS011;45342;42.662;27.718;2023-11-21T12:50:36;5.68;;;3.60;;
59516;SDS011;45342;42.662;27.718;2023-11-21T12:53:04;4.85;;;3.60;;
59516;SDS011;45342;42.662;27.718;2023-11-21T12:55:35;5.10;;;3.50;;
59516;SDS011;45342;42.662;27.718;2023-11-21T12:58:05;6.40;;;3.35;;
59516;SDS011;45342;42.662;27.718;2023-11-21T13:00:43;5.05;;;3.15;;
59516;SDS011;45342;42.662;27.718;2023-11-21T13:03:12;4.82;;;3.30;;
59516;SDS011;45342;42.662;27.718;2023-11-21T13:05:42;5.30;;;3.38;;
59516;SDS011;45342;42.662;27.718;2023-11-21T13:08:12;5.13;;;3.28;;
59516;SDS011;45342;42.662;27.718;2023-11-21T13:10:39;6.25;;;3.78;;
59516;SDS011;45342;42.662;27.718;2023-11-21T13:13:08;6.20;;;3.88;;
59516;SDS011;45342;42.662;27.718;2023-11-21T13:15:38;6.25;;;3.60;;
59516;SDS011;45342;42.662;27.718;2023-11-21T13:18:05;4.93;;;3.22;;
59516;SDS011;45342;42.662;27.718;2023-11-21T13:20:32;4.85;;;3.47;;
59516;SDS011;45342;42.662;27.718;2023-11-21T13:23:09;5.00;;;3.55;;
59516;SDS011;45342;42.662;27.718;2023-11-21T13:25:41;4.68;;;3.47;;
59516;SDS011;45342;42.662;27.718;2023-11-21T13:28:14;6.93;;;3.97;;
59516;SDS011;45342;42.662;27.718;2023-11-21T13:30:47;6.50;;;3.60;;
59516;SDS011;45342;42.662;27.718;2023-11-21T13:33:18;5.60;;;4.00;;
59516;SDS011;45342;42.662;27.718;2023-11-21T13:35:47;5.78;;;3.65;;
59516;SDS011;45342;42.662;27.718;2023-11-21T13:38:16;5.50;;;3.88;;
59516;SDS011;45342;42.662;27.718;2023-11-21T13:40:47;5.82;;;4.13;;
59516;SDS011;45342;42.662;27.718;2023-11-21T13:43:18;6.57;;;3.85;;
59516;SDS011;45342;42.662;27.718;2023-11-21T13:45:46;5.88;;;3.97;;
59516;SDS011;45342;42.662;27.718;2023-11-21T13:48:12;5.15;;;3.65;;
59516;SDS011;45342;42.662;27.718;2023-11-21T13:50:42;7.20;;;4.03;;
59516;SDS011;45342;42.662;27.718;2023-11-21T13:53:14;6.28;;;4.50;;
59516;SDS011;45342;42.662;27.718;2023-11-21T13:55:52;6.35;;;4.10;;
59516;SDS011;45342;42.662;27.718;2023-11-21T13:58:23;7.95;;;4.10;;
59516;SDS011;45342;42.662;27.718;2023-11-21T14:01:07;6.32;;;3.65;;
59516;SDS011;45342;42.662;27.718;2023-11-21T14:03:56;6.30;;;4.03;;
59516;SDS011;45342;42.662;27.718;2023-11-21T14:06:27;5.90;;;3.80;;
59516;SDS011;45342;42.662;27.718;2023-11-21T14:09:00;7.47;;;4.40;;
59516;SDS011;45342;42.662;27.718;2023-11-21T14:11:30;8.43;;;4.40;;
59516;SDS011;45342;42.662;27.718;2023-11-21T14:13:56;5.40;;;3.95;;
59516;SDS011;45342;42.662;27.718;2023-11-21T14:16:24;6.78;;;4.63;;
59516;SDS011;45342;42.662;27.718;2023-11-21T14:18:51;6.70;;;4.15;;
59516;SDS011;45342;42.662;27.718;2023-11-21T14:21:34;5.72;;;3.90;;
59516;SDS011;45342;42.662;27.718;2023-11-21T14:24:00;6.78;;;4.22;;
59516;SDS011;45342;42.662;27.718;2023-11-21T14:26:26;6.30;;;4.05;;
59516;SDS011;45342;42.662;27.718;2023-11-21T14:28:53;7.65;;;4.32;;
59516;SDS011;45342;42.662;27.718;2023-11-21T14:31:19;6.78;;;4.47;;
59516;SDS011;45342;42.662;27.718;2023-11-21T14:33:45;6.72;;;4.18;;
59516;SDS011;45342;42.662;27.718;2023-11-21T14:36:10;6.47;;;4.13;;
59516;SDS011;45342;42.662;27.718;2023-11-21T14:38:36;6.47;;;4.18;;
59516;SDS011;45342;42.662;27.718;2023-11-21T14:41:04;6.18;;;4.10;;
59516;SDS011;45342;42.662;27.718;2023-11-21T14:43:36;5.88;;;4.07;;
59516;SDS011;45342;42.662;27.718;2023-11-21T14:46:02;6.47;;;4.03;;
59516;SDS011;45342;42.662;27.718;2023-11-21T14:48:38;6.93;;;4.45;;
59516;SDS011;45342;42.662;27.718;2023-11-21T14:51:13;6.10;;;4.35;;
59516;SDS011;45342;42.662;27.718;2023-11-21T14:53:55;5.20;;;3.95;;
59516;SDS011;45342;42.662;27.718;2023-11-21T14:56:24;6.07;;;4.25;;
59516;SDS011;45342;42.662;27.718;2023-11-21T14:58:58;6.18;;;4.28;;
59516;SDS011;45342;42.662;27.718;2023-11-21T15:01:41;5.50;;;4.07;;
59516;SDS011;45342;42.662;27.718;2023-11-21T15:04:18;6.75;;;4.07;;
59516;SDS011;45342;42.662;27.718;2023-11-21T15:07:04;6.28;;;4.20;;
59516;SDS011;45342;42.662;27.718;2023-11-21T15:12:06;5.13;;;4.03;;
59516;SDS011;45342;42.662;27.718;2023-11-21T15:14:44;8.05;;;4.32;;
59516;SDS011;45342;42.662;27.718;2023-11-21T15:17:13;7.00;;;3.95;;
59516;SDS011;45342;42.662;27.718;2023-11-21T15:19:46;7.50;;;4.25;;
59516;SDS011;45342;42.662;27.718;2023-11-21T15:22:11;6.03;;;3.92;;
59516;SDS011;45342;42.662;27.718;2023-11-21T15:24:40;6.63;;;4.30;;
59516;SDS011;45342;42.662;27.718;2023-11-21T15:27:08;6.03;;;4.07;;
59516;SDS011;45342;42.662;27.718;2023-11-21T15:32:00;6.90;;;4.15;;
59516;SDS011;45342;42.662;27.718;2023-11-21T15:34:25;6.32;;;4.25;;